createdAt,value
2023-04-28T03:34:01.802Z,66.60
2023-04-28T03:44:37.424Z,75.10
2023-04-28T03:55:14.937Z,75.60
2023-04-28T04:05:51.059Z,71.00
2023-04-28T04:16:26.814Z,65.60
2023-04-28T04:27:05.390Z,59.40
2023-04-28T04:37:47.560Z,60.10
2023-04-28T04:48:25.119Z,75.80
2023-04-28T04:59:01.287Z,83.50
2023-04-28T05:09:57.109Z,87.80
2023-04-28T05:20:32.914Z,85.10
2023-04-28T05:31:08.784Z,81.90
2023-04-28T05:41:44.755Z,69.00
2023-04-28T05:52:21.370Z,66.80
2023-04-28T06:02:57.094Z,88.50
2023-04-28T06:13:33.036Z,97.00
2023-04-28T06:24:08.731Z,99.90
2023-04-28T06:34:47.464Z,99.90
2023-04-28T06:45:23.323Z,99.90
2023-04-28T06:55:59.099Z,99.90
2023-04-28T07:06:36.995Z,99.90
2023-04-28T07:17:12.701Z,99.90
2023-04-28T07:27:48.453Z,99.90
2023-04-28T07:38:24.313Z,99.90
2023-04-28T07:49:00.426Z,99.90
2023-04-28T07:59:36.168Z,99.90
2023-04-28T08:10:12.285Z,99.90
2023-04-28T08:20:47.858Z,99.90
2023-04-28T08:31:23.822Z,99.90
2023-04-28T08:41:59.523Z,99.90
2023-04-28T08:52:36.424Z,99.90
2023-04-28T09:03:13.727Z,99.90
2023-04-28T09:13:50.095Z,93.80
2023-04-28T09:24:33.335Z,99.90
2023-04-28T09:35:09.380Z,99.90
2023-04-28T09:45:45.818Z,99.90
2023-04-28T09:56:25.379Z,96.00
2023-04-28T10:07:01.475Z,93.60
2023-04-28T10:17:38.660Z,92.60
2023-04-28T10:28:14.609Z,98.10
2023-04-28T10:39:09.736Z,99.90
2023-04-28T10:49:57.594Z,99.90
2023-04-28T11:00:33.274Z,99.90
2023-04-28T11:11:25.975Z,99.90
2023-04-28T11:22:11.775Z,99.90
2023-04-28T11:32:50.386Z,99.90
2023-04-28T11:43:46.081Z,99.90
2023-04-28T11:54:29.524Z,99.90
2023-04-28T12:05:07.456Z,99.90
2023-04-28T12:15:43.387Z,99.90
2023-04-28T12:26:25.585Z,99.90
2023-04-28T12:37:02.814Z,99.90
2023-04-28T12:47:39.686Z,99.90
2023-04-28T12:58:15.311Z,99.90
2023-04-28T13:08:50.982Z,99.90
2023-04-28T13:19:27.643Z,99.90
2023-04-28T13:30:05.325Z,99.90
2023-04-28T13:40:42.266Z,99.90
2023-04-28T13:51:17.992Z,99.90
2023-04-28T14:01:54.028Z,99.90
2023-04-28T14:12:29.632Z,99.90
2023-04-28T14:23:05.149Z,99.90
2023-04-28T14:33:41.521Z,99.90
2023-04-28T14:44:17.225Z,99.90
2023-04-28T14:54:54.324Z,99.90
2023-04-28T15:05:30.247Z,99.90
